首页
METAR-TAF:

METAR-TAF

机场 :

阿尔汉格尔斯克, 俄罗斯

纬度: 64-30N, 经度: 040-44E, 海拔: 13米

当前天气观测

该预报发布于37分钟前的14:00 UTC
风速4节,风向南转西南,在西转西南之间变化
温度 3°C
湿度 93%
气压 991 hPa
能见度10公里或以上
多云层高于1700英尺, 积雨云.

METAR: ULAA 231400Z 21002MPS 170V250 9999 BKN017CB 03/02 Q0991 R26/290060 NOSIG RMK QFE742/0989

时间: 17:37 (14:37 UTC)

预报

该预报发布于3小时和38分钟前的10:59 UTC
预报有效从23日的 12点(UTC)到 24日的 12点(UTC)
风速6节,风向西南
能見度: 6000
多云层高于1100英尺
短暂存在
从 23日的 12点(UTC)到 23日的 17点(UTC)
风速6节,风向西,有时为17节阵风
能見度: 0800
多云层高于300英尺
多云层高于1100英尺, 积雨云.
大阵雪, 雨
短暂存在
从 23日的 17点(UTC)到 23日的 21点(UTC)
风速6节,风向,有时为17节阵风
能見度: 3100
多云层高于500英尺
多云层高于1100英尺, 积雨云.
小阵雪, 轻雾
从 23日的 2100点(UTC)
风速6节,风向西南
能見度: 3100
散云层高于1100英尺
多云层高于1500英尺
轻雾
短暂存在
从 23日的 23点(UTC)到 24日的 07点(UTC)
风速2节,风向多变
能見度: 0400
少量云层高于200英尺
冻雾

TAF: ULAA 231059Z 2312/2412 22003MPS 6000 BKN011 TEMPO 2312/2317 26003G09MPS 0800 +SHSNRA BKN003 BKN011CB TEMPO 2317/2321 18003G09MPS 3100 -SHSN BR BKN005 BKN011CB FM232100 23003MPS 3100 BR SCT011 BKN015 TEMPO 2323/2407 VRB01MPS 0400 FZFG FEW002

超过4000个机场的气象观测和天气预报(METAR&TAF报告)。

可查询的气象台以黄色和红色小点在地图上表示。

将鼠标移到小点上方,可查看气象台名称。

然后点击查看天气观测和预报。

如需切换地图:点击带黑十字的绿色按钮放大地图;点击带横线的绿色按钮缩小地图;或者点击绿色箭头查看邻近地区的地图。


METAR-TAF: